Time;durP1;ratioP1;P1;durP2;ratioP2;P2;SDS_P1;SDS_P2;PMS_P1;PMS_P2;Temp;Humidity;BMP_temperature;BMP_pressure;BME280_temperature;BME280_humidity;BME280_pressure;Samples;Min_cycle;Max_cycle;Signal;HPM_P1;HPM_P2
2022/01/30 05:08:41;;;;;;;17.65;10.52;;;;;;;-7.00;100.00;94922.81;4878999;29;20049;-75
2022/01/30 05:11:09;;;;;;;16.02;9.95;;;;;;;-6.83;100.00;94922.06;4890046;29;20024;-75
2022/01/30 05:13:37;;;;;;;14.07;9.73;;;;;;;-7.10;100.00;94919.09;4893020;29;20025;-75
2022/01/30 05:16:03;;;;;;;16.50;9.77;;;;;;;-7.00;100.00;94932.09;4875259;29;20056;-75
2022/01/30 05:18:31;;;;;;;16.90;10.93;;;;;;;-6.85;100.00;94918.00;4894339;29;20127;-75
2022/01/30 05:20:57;;;;;;;20.35;12.77;;;;;;;-6.79;100.00;94905.16;4892021;29;20123;-75
2022/01/30 05:23:23;;;;;;;59.17;31.92;;;;;;;-6.65;100.00;94892.78;4894884;29;20112;-75
2022/01/30 05:25:50;;;;;;;34.05;22.67;;;;;;;-6.62;100.00;94882.56;4877248;29;20103;-75
2022/01/30 05:28:17;;;;;;;13.52;9.48;;;;;;;-6.41;100.00;94874.81;4878915;29;20466;-75
2022/01/30 05:30:44;;;;;;;13.73;10.43;;;;;;;-6.02;100.00;94862.03;4892724;29;20052;-75
2022/01/30 05:33:10;;;;;;;14.95;9.73;;;;;;;-5.99;100.00;94861.06;4878547;29;20032;-76
2022/01/30 05:35:35;;;;;;;11.32;8.38;;;;;;;-5.89;100.00;94862.25;4878454;29;20025;-76
2022/01/30 05:38:02;;;;;;;14.90;8.68;;;;;;;-5.68;100.00;94842.69;4892981;29;20414;-76
2022/01/30 05:40:28;;;;;;;13.23;9.15;;;;;;;-5.73;100.00;94837.06;4894065;29;20036;-76
2022/01/30 05:42:53;;;;;;;11.80;8.63;;;;;;;-5.75;100.00;94851.44;4876918;29;20051;-76
2022/01/30 05:45:37;;;;;;;14.38;9.50;;;;;;;-5.82;100.00;94855.16;4893792;29;20027;-76
2022/01/30 05:48:08;;;;;;;14.07;9.18;;;;;;;-5.89;100.00;94874.84;4890993;29;20028;-75
2022/01/30 05:50:34;;;;;;;10.77;8.73;;;;;;;-5.85;100.00;94875.50;4894003;29;20024;-75
2022/01/30 05:52:59;;;;;;;13.07;9.50;;;;;;;-5.98;100.00;94888.72;4877465;29;20035;-75
2022/01/30 05:55:25;;;;;;;26.48;16.33;;;;;;;-5.94;100.00;94895.22;4877299;29;20017;-74
2022/01/30 05:57:50;;;;;;;15.13;10.93;;;;;;;-6.03;100.00;94905.72;4893746;29;20040;-74
2022/01/30 06:00:16;;;;;;;15.15;8.20;;;;;;;-6.04;100.00;94911.69;4893308;29;20039;-74
2022/01/30 06:02:43;;;;;;;15.55;10.98;;;;;;;-5.84;100.00;94915.72;4877878;29;20510;-73
2022/01/30 06:05:09;;;;;;;17.08;10.25;;;;;;;-5.71;100.00;94905.84;4892012;29;20025;-73
2022/01/30 06:07:38;;;;;;;15.80;8.70;;;;;;;-5.59;100.00;94897.69;4890343;29;20021;-74
2022/01/30 06:10:04;;;;;;;13.82;8.95;;;;;;;-5.43;100.00;94901.09;4874651;29;20028;-73
2022/01/30 06:12:29;;;;;;;18.52;10.43;;;;;;;-5.04;100.00;94891.47;4876964;29;20419;-72
2022/01/30 06:14:55;;;;;;;14.88;9.65;;;;;;;-4.73;100.00;94888.16;4875604;29;20071;-73
2022/01/30 06:17:21;;;;;;;15.30;10.75;;;;;;;-4.58;100.00;94889.03;4891746;29;20036;-73
2022/01/30 06:19:46;;;;;;;16.70;11.18;;;;;;;-4.41;100.00;94874.63;4893411;29;20040;-73
2022/01/30 06:22:12;;;;;;;18.45;13.02;;;;;;;-4.15;100.00;94868.13;4891441;29;20437;-73
2022/01/30 06:24:37;;;;;;;15.65;10.25;;;;;;;-4.01;100.00;94863.09;4894699;29;20043;-73
2022/01/30 06:27:03;;;;;;;22.63;13.27;;;;;;;-3.80;100.00;94856.84;4892208;29;20029;-73
2022/01/30 06:29:28;;;;;;;20.65;13.40;;;;;;;-3.74;100.00;94855.66;4877209;29;20115;-73
2022/01/30 06:31:54;;;;;;;13.50;10.85;;;;;;;-3.63;100.00;94844.94;4877506;29;20035;-73
2022/01/30 06:34:20;;;;;;;16.55;10.68;;;;;;;-3.55;100.00;94850.38;4893853;29;20025;-71
2022/01/30 06:36:45;;;;;;;13.35;9.15;;;;;;;-3.54;100.00;94859.59;4885585;29;20028;-73
2022/01/30 06:39:11;;;;;;;11.52;9.68;;;;;;;-3.50;100.00;94861.03;4873185;29;20566;-73
2022/01/30 06:41:36;;;;;;;13.82;9.20;;;;;;;-3.45;100.00;94848.94;4876058;29;20080;-73
2022/01/30 06:44:02;;;;;;;10.77;8.25;;;;;;;-3.53;100.00;94863.75;4874531;29;20124;-73
2022/01/30 06:46:27;;;;;;;10.52;8.15;;;;;;;-3.40;100.00;94864.63;4875158;29;20546;-74
2022/01/30 06:48:53;;;;;;;11.48;8.40;;;;;;;-3.30;100.00;94853.91;4857433;29;20037;-73
2022/01/30 06:51:18;;;;;;;13.65;8.45;;;;;;;-3.20;100.00;94865.09;4874808;29;20160;-74
2022/01/30 06:53:44;;;;;;;13.45;8.48;;;;;;;-3.09;100.00;94856.88;4877704;29;20973;-73
2022/01/30 06:56:09;;;;;;;9.32;7.28;;;;;;;-3.05;100.00;94855.78;4891740;29;20025;-73
2022/01/30 06:58:35;;;;;;;8.82;6.55;;;;;;;-2.95;100.00;94856.03;4891613;29;20031;-73
2022/01/30 07:01:00;;;;;;;8.63;7.28;;;;;;;-2.95;100.00;94861.91;4891297;29;20063;-73
2022/01/30 07:03:25;;;;;;;12.40;8.20;;;;;;;-2.83;100.00;94870.50;4892241;29;20032;-73
2022/01/30 07:05:51;;;;;;;9.95;7.93;;;;;;;-2.77;100.00;94862.53;4877742;29;20097;-70
2022/01/30 07:08:16;;;;;;;17.85;14.00;;;;;;;-2.78;100.00;94853.31;4889243;29;20033;-74
2022/01/30 07:10:42;;;;;;;13.63;9.75;;;;;;;-2.73;100.00;94834.38;4874292;29;20100;-73
2022/01/30 07:13:08;;;;;;;9.50;8.07;;;;;;;-2.68;100.00;94823.97;4870938;29;20032;-72
2022/01/30 07:15:34;;;;;;;11.45;7.50;;;;;;;-2.48;99.60;94815.94;4875588;29;20108;-73
2022/01/30 07:17:59;;;;;;;7.90;6.63;;;;;;;-2.39;98.72;94809.47;4871967;29;20583;-74
2022/01/30 07:20:25;;;;;;;22.50;12.23;;;;;;;-2.16;98.62;94832.47;4873886;29;20120;-73
2022/01/30 07:22:50;;;;;;;28.38;15.32;;;;;;;-2.17;98.21;94819.88;4900806;29;20789;-71
2022/01/30 07:25:16;;;;;;;20.23;13.40;;;;;;;-2.05;98.24;94818.25;4885774;29;20046;-72
2022/01/30 07:27:42;;;;;;;22.38;12.10;;;;;;;-1.89;97.82;94821.44;4862328;29;20040;-71
2022/01/30 07:30:08;;;;;;;20.77;11.63;;;;;;;-1.98;97.87;94827.94;4876513;29;20048;-72
2022/01/30 07:32:34;;;;;;;14.85;10.27;;;;;;;-1.91;97.78;94821.56;4871836;29;20036;-72
2022/01/30 07:34:59;;;;;;;20.58;11.50;;;;;;;-1.70;97.16;94824.41;4872717;29;20415;-72
2022/01/30 07:37:25;;;;;;;24.08;15.63;;;;;;;-1.60;96.48;94826.25;4876574;29;20532;-72
2022/01/30 07:39:52;;;;;;;30.80;18.15;;;;;;;-1.51;95.23;94835.00;4893763;29;20048;-72
2022/01/30 07:42:19;;;;;;;22.65;15.10;;;;;;;-1.34;93.99;94838.94;4878661;29;20020;-74
2022/01/30 07:44:44;;;;;;;32.40;20.50;;;;;;;-1.19;93.43;94838.72;4886079;29;20028;-74
2022/01/30 07:47:10;;;;;;;29.38;20.60;;;;;;;-1.46;93.28;94830.41;4869846;29;20104;-72
2022/01/30 07:49:35;;;;;;;25.02;17.25;;;;;;;-1.40;92.52;94836.81;4879269;29;20037;-72
2022/01/30 07:52:01;;;;;;;33.30;20.35;;;;;;;-1.18;92.56;94844.59;4878127;29;20041;-73
2022/01/30 07:54:26;;;;;;;16.95;13.48;;;;;;;-1.31;93.98;94846.34;4882130;29;20069;-72
2022/01/30 07:56:52;;;;;;;15.60;10.48;;;;;;;-1.39;94.31;94841.78;4872630;29;20029;-72
2022/01/30 07:59:18;;;;;;;13.20;11.48;;;;;;;-1.26;94.32;94839.25;4891623;29;20036;-72
2022/01/30 08:01:45;;;;;;;14.63;11.68;;;;;;;-1.27;95.55;94837.59;4880935;29;20918;-72
2022/01/30 08:04:10;;;;;;;15.30;10.45;;;;;;;-1.23;94.52;94828.88;4878922;29;20495;-72
2022/01/30 08:06:36;;;;;;;12.52;10.40;;;;;;;-0.87;94.03;94828.13;4867691;29;20044;-72
2022/01/30 08:09:02;;;;;;;10.93;9.27;;;;;;;-0.80;92.04;94825.03;4876424;29;20124;-72
2022/01/30 08:11:28;;;;;;;11.75;9.95;;;;;;;-0.12;89.77;94821.91;4877734;29;20033;-72
2022/01/30 08:13:53;;;;;;;24.83;13.50;;;;;;;0.50;86.15;94820.69;4879983;29;20127;-72
2022/01/30 08:16:20;;;;;;;25.77;17.30;;;;;;;0.13;84.51;94828.59;4870624;29;20040;-71
2022/01/30 08:18:45;;;;;;;19.23;13.82;;;;;;;0.61;83.15;94793.63;4868661;29;20032;-72
2022/01/30 08:21:11;;;;;;;17.02;12.93;;;;;;;0.79;82.39;94794.78;4878074;29;20029;-71
2022/01/30 08:23:38;;;;;;;9.85;8.50;;;;;;;1.06;80.39;94796.03;4867620;29;20033;-71
2022/01/30 08:26:04;;;;;;;10.18;7.72;;;;;;;1.65;75.48;94788.03;4861575;29;20036;-74
2022/01/30 08:28:29;;;;;;;11.98;8.32;;;;;;;1.12;76.47;94784.56;4876475;29;20040;-71
2022/01/30 08:30:55;;;;;;;13.45;9.18;;;;;;;0.71;77.85;94785.16;4868663;29;20028;-73
2022/01/30 08:33:21;;;;;;;14.15;11.05;;;;;;;1.22;74.23;94775.25;4857667;29;20045;-74
2022/01/30 08:35:46;;;;;;;12.95;9.13;;;;;;;3.25;71.54;94767.91;4876793;29;20037;-74
2022/01/30 08:38:18;;;;;;;8.95;7.63;;;;;;;3.25;62.81;94767.91;4880603;29;20035;-72
2022/01/30 08:40:47;;;;;;;8.65;7.75;;;;;;;3.53;61.93;94775.66;4865072;29;20395;-72
2022/01/30 08:43:12;;;;;;;8.57;6.75;;;;;;;10.65;42.91;94764.41;4872101;29;20024;-72
2022/01/30 08:45:38;;;;;;;5.95;5.45;;;;;;;5.71;50.17;94783.88;4871688;29;20565;-72
2022/01/30 08:48:04;;;;;;;8.43;6.00;;;;;;;5.66;53.50;94791.19;4876451;29;20029;-72
2022/01/30 08:50:29;;;;;;;8.48;6.57;;;;;;;4.24;56.68;94804.38;4879700;29;20047;-72
2022/01/30 08:52:55;;;;;;;9.85;7.72;;;;;;;8.77;46.54;94795.72;4889782;29;20084;-73
2022/01/30 08:55:20;;;;;;;10.35;8.88;;;;;;;11.15;40.32;94785.28;4898614;29;20183;-73
2022/01/30 08:57:46;;;;;;;8.20;7.28;;;;;;;12.27;37.68;94773.66;4880563;29;20032;-73
2022/01/30 09:00:13;;;;;;;10.65;7.95;;;;;;;11.05;39.14;94758.81;4885031;29;20414;-73
2022/01/30 09:02:41;;;;;;;8.13;7.32;;;;;;;12.56;36.79;94763.16;4888921;29;20103;-73
2022/01/30 09:05:07;;;;;;;9.68;7.00;;;;;;;12.89;35.59;94760.81;4890492;29;20033;-74
2022/01/30 09:07:33;;;;;;;7.97;6.35;;;;;;;12.50;34.34;94772.50;4890171;29;20029;-73
2022/01/30 09:09:58;;;;;;;6.05;5.45;;;;;;;12.31;35.86;94767.94;4887076;29;21004;-73
2022/01/30 09:12:24;;;;;;;8.68;6.05;;;;;;;12.73;36.03;94769.69;4872066;29;20059;-73
2022/01/30 09:14:51;;;;;;;9.50;6.75;;;;;;;12.52;34.51;94764.53;4889568;29;20041;-73
2022/01/30 09:17:17;;;;;;;6.90;6.13;;;;;;;15.53;30.80;94764.66;4891710;29;20444;-72
2022/01/30 09:19:46;;;;;;;8.60;6.40;;;;;;;16.27;30.62;94766.75;4886666;29;20029;-72
2022/01/30 09:22:17;;;;;;;10.27;6.03;;;;;;;15.66;31.42;94769.03;4882901;29;20075;-73
2022/01/30 09:24:43;;;;;;;6.20;5.03;;;;;;;16.57;29.84;94767.75;4888569;29;20502;-73
2022/01/30 09:27:09;;;;;;;6.85;5.53;;;;;;;15.61;30.77;94768.81;4884989;29;20589;-72
2022/01/30 09:29:36;;;;;;;6.47;5.60;;;;;;;16.15;29.99;94766.59;4882612;29;20033;-72
2022/01/30 09:32:04;;;;;;;7.53;6.60;;;;;;;14.76;31.99;94759.31;4886164;29;20476;-70
2022/01/30 09:34:29;;;;;;;8.05;6.28;;;;;;;15.69;30.29;94750.34;4883963;29;20567;-72
2022/01/30 09:36:55;;;;;;;7.05;6.35;;;;;;;14.20;31.32;94748.41;4883578;29;20112;-71
2022/01/30 09:39:21;;;;;;;9.05;8.18;;;;;;;13.37;33.54;94743.53;4884774;29;20558;-71
2022/01/30 09:41:49;;;;;;;12.40;7.55;;;;;;;11.96;34.62;94737.63;4882697;29;20033;-72
2022/01/30 09:44:16;;;;;;;9.27;8.15;;;;;;;10.59;35.81;94722.69;4867251;29;20123;-74
2022/01/30 09:46:43;;;;;;;9.43;8.50;;;;;;;10.10;41.94;94721.47;4873280;29;20155;-72
2022/01/30 09:49:09;;;;;;;9.98;8.38;;;;;;;11.38;36.87;94702.22;4883099;29;20033;-74
2022/01/30 09:51:39;;;;;;;7.78;6.75;;;;;;;11.86;35.38;94693.81;4889962;29;20079;-74
2022/01/30 09:54:06;;;;;;;16.40;12.63;;;;;;;11.56;38.32;94689.66;4878922;29;20071;-73
2022/01/30 09:56:31;;;;;;;10.95;8.57;;;;;;;13.22;34.59;94683.84;4881692;29;20159;-73
2022/01/30 09:58:57;;;;;;;7.82;7.05;;;;;;;13.83;33.00;94663.81;4879510;29;20119;-71
2022/01/30 10:01:29;;;;;;;10.00;8.93;;;;;;;11.91;35.25;94652.53;4890109;29;20060;-73
2022/01/30 10:03:55;;;;;;;12.38;9.32;;;;;;;12.40;34.53;94642.16;4874591;29;20027;-73
2022/01/30 10:06:23;;;;;;;11.68;10.13;;;;;;;13.48;32.78;94637.13;4887829;29;20029;-71
2022/01/30 10:08:54;;;;;;;8.23;6.80;;;;;;;13.65;32.12;94625.34;4890409;29;20088;-71
2022/01/30 10:11:34;;;;;;;9.18;8.23;;;;;;;14.74;31.80;94613.50;4889371;29;20091;-71
2022/01/30 10:14:02;;;;;;;12.77;10.73;;;;;;;13.26;33.68;94608.84;4890880;29;20041;-71
2022/01/30 10:16:28;;;;;;;11.98;10.68;;;;;;;14.69;31.05;94605.50;4890912;29;20541;-71
2022/01/30 10:18:53;;;;;;;11.02;9.90;;;;;;;11.19;34.12;94606.88;4889710;29;20029;-70
2022/01/30 10:21:19;;;;;;;9.00;8.10;;;;;;;12.40;34.74;94607.56;4890219;29;20249;-73
2022/01/30 10:23:45;;;;;;;24.60;18.30;;;;;;;13.25;32.54;94608.03;4884973;29;20051;-70
2022/01/30 10:26:12;;;;;;;16.38;14.35;;;;;;;12.45;32.08;94598.25;4873698;29;20037;-71
2022/01/30 10:28:38;;;;;;;11.40;8.23;;;;;;;12.60;35.62;94601.53;4872355;29;20433;-73
2022/01/30 10:31:08;;;;;;;8.98;7.25;;;;;;;12.36;33.38;94606.38;4889699;29;20031;-73
2022/01/30 10:33:49;;;;;;;11.15;6.90;;;;;;;13.96;31.46;94593.53;4872476;29;20510;-73
2022/01/30 10:53:04;;;;;;;9.98;7.68;;;;;;;5.34;52.39;94603.44;4872411;29;20051;-71
2022/01/30 10:55:43;;;;;;;12.27;8.75;;;;;;;5.93;51.88;94586.56;4875261;29;20406;-71
2022/01/30 10:58:14;;;;;;;14.02;9.23;;;;;;;5.62;53.40;94576.69;4889380;29;20033;-71
2022/01/30 11:00:48;;;;;;;12.23;8.95;;;;;;;6.10;51.90;94552.28;4890499;29;20035;-71
2022/01/30 11:03:36;;;;;;;16.70;11.30;;;;;;;5.91;51.34;94544.81;4889135;29;20123;-71
2022/01/30 11:06:02;;;;;;;13.70;8.70;;;;;;;5.73;51.04;94539.69;4877946;29;20052;-70
2022/01/30 11:08:32;;;;;;;16.60;12.15;;;;;;;5.42;53.55;94547.03;4885914;29;20016;-70
2022/01/30 11:10:59;;;;;;;10.32;7.03;;;;;;;5.61;52.52;94554.56;4891366;29;20064;-70
2022/01/30 11:13:32;;;;;;;13.25;7.10;;;;;;;6.69;50.60;94570.19;4889394;29;20036;-72
2022/01/30 11:16:55;;;;;;;9.93;7.00;;;;;;;5.78;51.18;94563.94;4875327;29;20108;-71
2022/01/30 11:18:49;;;;;;;13.20;7.15;;;;;;;6.06;52.62;94556.13;4893690;29;20494;-70
2022/01/30 11:21:17;;;;;;;9.52;7.00;;;;;;;6.15;52.19;94544.91;4888614;29;20031;-70
2022/01/30 11:23:42;;;;;;;13.90;7.68;;;;;;;5.82;53.00;94537.00;4889266;29;20028;-70
2022/01/30 11:26:08;;;;;;;9.50;6.88;;;;;;;6.20;51.80;94543.47;4891386;29;20113;-70
2022/01/30 11:28:35;;;;;;;8.93;6.25;;;;;;;6.42;52.27;94525.91;4889913;29;20501;-70
2022/01/30 11:31:00;;;;;;;14.43;7.95;;;;;;;5.99;52.28;94534.56;4884692;29;20033;-69
2022/01/30 11:33:26;;;;;;;11.50;7.65;;;;;;;5.79;52.54;94534.75;4873391;29;20125;-70
2022/01/30 11:35:52;;;;;;;16.38;8.40;;;;;;;6.61;52.29;94529.03;4885464;29;20080;-70
2022/01/30 11:38:17;;;;;;;14.20;7.00;;;;;;;6.78;50.85;94524.69;4867477;29;20074;-70
2022/01/30 11:41:12;;;;;;;9.43;6.78;;;;;;;7.00;50.59;94523.28;4887408;29;20040;-70
2022/01/30 11:43:37;;;;;;;14.55;6.72;;;;;;;6.29;51.27;94521.19;4887160;29;20033;-69
2022/01/30 11:46:14;;;;;;;10.20;6.97;;;;;;;6.55;50.86;94527.03;4881177;29;20506;-70
2022/01/30 11:48:39;;;;;;;9.07;5.75;;;;;;;6.94;50.63;94517.00;4906743;29;20028;-70
2022/01/30 11:51:05;;;;;;;13.95;7.68;;;;;;;6.12;53.72;94522.09;4890348;29;20116;-69
2022/01/30 11:53:30;;;;;;;14.68;7.53;;;;;;;5.78;54.22;94497.16;4888135;29;20033;-70
2022/01/30 11:55:57;;;;;;;13.07;6.82;;;;;;;6.28;54.05;94489.53;4890168;29;20032;-69
2022/01/30 11:58:39;;;;;;;13.32;8.05;;;;;;;6.81;53.02;94489.16;4867900;29;20497;-69
2022/01/30 12:01:26;;;;;;;9.52;7.13;;;;;;;6.73;52.61;94488.34;4907574;29;20052;-70
2022/01/30 12:04:01;;;;;;;9.25;7.68;;;;;;;6.43;52.09;94484.59;4888547;29;20047;-70
2022/01/30 12:06:26;;;;;;;9.93;7.30;;;;;;;6.32;54.21;94470.25;4885945;29;20474;-70
2022/01/30 12:08:53;;;;;;;10.85;7.80;;;;;;;6.22;53.67;94468.78;4886127;29;20035;-70
2022/01/30 12:11:37;;;;;;;11.38;7.63;;;;;;;6.55;52.08;94474.81;4917224;29;20471;-70
2022/01/30 12:14:13;;;;;;;8.93;7.22;;;;;;;7.09;50.36;94476.00;4889820;29;20024;-70
2022/01/30 12:16:49;;;;;;;9.65;7.03;;;;;;;6.66;51.46;94477.88;4883621;29;20096;-70
2022/01/30 12:19:36;;;;;;;11.15;7.70;;;;;;;6.68;51.01;94464.84;4885234;29;20397;-70
2022/01/30 12:22:28;;;;;;;12.23;7.22;;;;;;;7.16;50.92;94476.97;4881371;29;20048;-70
2022/01/30 12:25:20;;;;;;;8.85;6.60;;;;;;;6.75;50.96;94474.34;4880549;29;20422;-70
2022/01/30 12:27:54;;;;;;;15.55;7.43;;;;;;;6.55;52.50;94474.81;4886191;29;20049;-70
2022/01/30 12:30:44;;;;;;;13.18;7.75;;;;;;;6.32;53.31;94474.59;4900194;29;21419;-72
2022/01/30 12:33:32;;;;;;;13.57;6.45;;;;;;;6.46;53.42;94460.31;4908269;29;20414;-72
2022/01/30 12:36:00;;;;;;;9.02;6.93;;;;;;;5.88;54.55;94460.28;4887065;29;20039;-72
2022/01/30 12:38:34;;;;;;;10.13;7.30;;;;;;;5.63;55.29;94460.16;4877292;29;20116;-73
2022/01/30 12:41:07;;;;;;;8.07;6.45;;;;;;;6.13;53.94;94444.03;4883853;29;20717;-72
2022/01/30 12:43:33;;;;;;;10.55;5.13;;;;;;;6.29;53.96;94438.94;4875913;29;20065;-72
2022/01/30 12:46:08;;;;;;;14.65;7.97;;;;;;;6.29;55.06;94439.72;4880617;29;20444;-72
2022/01/30 12:48:33;;;;;;;11.90;8.82;;;;;;;6.17;54.66;94424.75;4883253;29;20032;-72
2022/01/30 12:51:04;;;;;;;13.18;8.15;;;;;;;6.51;53.42;94407.47;4883991;29;20569;-73
2022/01/30 12:53:30;;;;;;;;;;;;;;;5.99;54.04;94393.22;4890470;29;20425;-73
2022/01/30 12:55:55;;;;;;;8.90;7.25;;;;;;;6.01;54.63;94391.28;4881188;29;19995;-73
2022/01/30 12:58:22;;;;;;;11.10;6.25;;;;;;;6.14;54.61;94394.22;4912879;29;20040;-73
2022/01/30 13:01:08;;;;;;;13.02;7.25;;;;;;;6.19;53.73;94389.41;4882437;29;20056;-73
2022/01/30 13:03:33;;;;;;;13.63;7.35;;;;;;;6.23;53.26;94398.41;4912144;29;20036;-72
2022/01/30 13:06:00;;;;;;;17.15;11.52;;;;;;;5.66;53.87;94387.94;4878892;29;20033;-72
2022/01/30 13:08:44;;;;;;;16.90;9.45;;;;;;;5.84;54.52;94398.91;4885572;29;20092;-73
2022/01/30 13:11:21;;;;;;;15.38;9.10;;;;;;;5.51;54.96;94407.47;4867182;29;20056;-73
2022/01/30 13:13:55;;;;;;;11.45;6.07;;;;;;;5.41;55.51;94404.22;4888799;29;20031;-72
2022/01/30 13:16:22;;;;;;;10.60;6.50;;;;;;;5.70;54.63;94396.16;4885173;29;20039;-73
2022/01/30 13:18:47;;;;;;;9.85;6.28;;;;;;;5.67;54.56;94397.25;4882776;29;20430;-72
2022/01/30 13:21:13;;;;;;;11.50;8.43;;;;;;;5.69;54.85;94389.38;4882115;29;20033;-73
2022/01/30 13:23:45;;;;;;;22.55;12.10;;;;;;;5.70;53.81;94391.00;4912833;29;20033;-73
2022/01/30 13:26:10;;;;;;;14.43;8.52;;;;;;;5.58;55.38;94377.66;4867766;29;20451;-73
2022/01/30 13:28:36;;;;;;;11.35;7.70;;;;;;;5.78;55.05;94378.19;4912654;29;20124;-73
2022/01/30 13:31:12;;;;;;;17.10;9.23;;;;;;;5.29;56.63;94378.00;4884975;29;20429;-73
2022/01/30 13:33:37;;;;;;;22.45;13.23;;;;;;;5.42;57.56;94376.78;4882857;29;20033;-72
2022/01/30 13:36:03;;;;;;;20.75;11.40;;;;;;;5.32;57.81;94374.31;4894805;29;20028;-72
2022/01/30 13:38:28;;;;;;;12.88;9.13;;;;;;;5.12;57.72;94360.09;4915447;29;20072;-72
2022/01/30 13:40:59;;;;;;;20.95;13.23;;;;;;;5.45;56.66;94354.16;4871872;29;20044;-72
2022/01/30 16:22:00;;;;;;;5.63;3.63;;;;;;;2.97;100.00;94508.63;4895524;29;20090;-72
2022/01/30 16:24:26;;;;;;;5.15;4.65;;;;;;;2.80;100.00;94504.19;4904722;29;20083;-72
2022/01/30 16:26:51;;;;;;;9.98;5.25;;;;;;;2.72;100.00;94509.19;4889647;29;20127;-71
2022/01/30 16:29:17;;;;;;;6.22;5.13;;;;;;;2.62;100.00;94504.06;4872341;29;20041;-72
2022/01/30 16:31:42;;;;;;;8.20;5.43;;;;;;;2.57;100.00;94514.69;4886912;29;20043;-72
2022/01/30 16:34:08;;;;;;;4.05;3.38;;;;;;;2.31;100.00;94511.00;4889568;29;20043;-72
2022/01/30 16:36:34;;;;;;;7.70;5.68;;;;;;;2.26;100.00;94520.03;4869850;29;20040;-72
2022/01/30 16:39:00;;;;;;;5.97;4.60;;;;;;;2.22;100.00;94522.03;4888175;29;20092;-72
2022/01/30 16:41:25;;;;;;;6.03;4.72;;;;;;;2.16;100.00;94520.00;4872742;29;20028;-71
2022/01/30 16:43:54;;;;;;;6.82;5.25;;;;;;;2.06;100.00;94524.28;4886539;29;20037;-72
2022/01/30 16:48:57;;;;;;;10.07;6.10;;;;;;;1.99;100.00;94518.09;4886966;29;20442;-74
2022/01/30 16:51:23;;;;;;;7.47;6.47;;;;;;;2.06;100.00;94529.38;4885702;29;20052;-71
2022/01/30 16:53:49;;;;;;;9.55;7.47;;;;;;;2.01;100.00;94534.06;4870024;29;20031;-72
2022/01/30 16:56:15;;;;;;;12.07;8.55;;;;;;;2.04;100.00;94549.13;4885787;29;21032;-72
2022/01/30 16:58:40;;;;;;;8.68;6.15;;;;;;;1.90;100.00;94568.16;4870687;29;20498;-71
2022/01/30 17:01:06;;;;;;;7.13;6.15;;;;;;;1.99;100.00;94582.69;4878883;29;20024;-72
2022/01/30 17:03:32;;;;;;;7.85;6.40;;;;;;;2.04;100.00;94574.66;4888160;29;20115;-72
2022/01/30 17:05:58;;;;;;;7.35;6.57;;;;;;;1.99;100.00;94589.56;4891013;29;20028;-72
2022/01/30 17:08:25;;;;;;;9.27;6.47;;;;;;;1.97;100.00;94553.94;4873848;29;20599;-71
2022/01/30 17:10:53;;;;;;;9.90;8.57;;;;;;;2.02;100.00;94528.81;4891300;29;20048;-71
2022/01/30 17:13:19;;;;;;;8.85;7.05;;;;;;;1.93;100.00;94537.25;4891652;29;20103;-71
2022/01/30 17:15:47;;;;;;;7.70;6.55;;;;;;;1.92;100.00;94560.38;4899458;29;20589;-71
2022/01/30 17:18:14;;;;;;;10.80;6.70;;;;;;;1.92;100.00;94570.59;4874902;29;20028;-71
2022/01/30 17:20:42;;;;;;;6.57;5.85;;;;;;;1.96;100.00;94585.50;4889739;29;20033;-71
2022/01/30 17:23:08;;;;;;;9.02;6.13;;;;;;;2.01;100.00;94570.63;4883990;29;20035;-72
2022/01/30 17:25:34;;;;;;;8.30;6.25;;;;;;;2.03;100.00;94575.59;4890824;29;20024;-72
2022/01/30 17:28:02;;;;;;;10.23;7.38;;;;;;;1.91;100.00;94568.97;4884895;29;20533;-72
2022/01/30 17:30:29;;;;;;;9.35;8.43;;;;;;;2.04;100.00;94574.66;4886863;29;20093;-72
2022/01/30 17:32:56;;;;;;;8.95;7.65;;;;;;;2.06;100.00;94575.34;4876419;29;20036;-71
2022/01/30 17:35:23;;;;;;;9.35;7.60;;;;;;;1.91;100.00;94585.09;4902202;29;20029;-71
2022/01/30 17:37:48;;;;;;;9.23;7.05;;;;;;;1.97;100.00;94573.56;4890112;29;20616;-72
2022/01/30 17:40:15;;;;;;;10.02;8.05;;;;;;;1.95;100.00;94585.66;4874301;29;20037;-72
2022/01/30 17:42:40;;;;;;;9.68;8.20;;;;;;;1.88;100.00;94585.34;4890692;29;20035;-72
2022/01/30 17:45:06;;;;;;;10.85;7.30;;;;;;;2.01;100.00;94591.06;4891101;29;20064;-71
2022/01/30 17:47:31;;;;;;;7.15;5.45;;;;;;;2.05;100.00;94578.84;4888242;29;20025;-72
2022/01/30 17:49:57;;;;;;;5.95;4.53;;;;;;;2.17;100.00;94582.09;4873669;29;20123;-72
2022/01/30 17:52:22;;;;;;;6.85;5.63;;;;;;;2.18;100.00;94581.16;4888768;29;20139;-72
2022/01/30 17:54:48;;;;;;;7.95;5.43;;;;;;;2.24;100.00;94589.13;4890243;29;20853;-72
2022/01/30 17:57:13;;;;;;;6.53;5.50;;;;;;;2.15;100.00;94584.81;4886874;29;20020;-72
2022/01/30 17:59:39;;;;;;;8.65;5.90;;;;;;;2.07;100.00;94589.72;4888378;29;20035;-72
2022/01/30 18:02:04;;;;;;;8.43;6.22;;;;;;;2.14;100.00;94588.28;4869047;29;20029;-71
2022/01/30 18:04:31;;;;;;;7.15;6.32;;;;;;;1.96;100.00;94585.50;4888343;29;20041;-74
2022/01/30 18:06:59;;;;;;;8.23;6.13;;;;;;;1.78;100.00;94589.59;4889073;29;20127;-74
2022/01/30 18:09:25;;;;;;;10.02;6.80;;;;;;;1.71;100.00;94602.97;4858396;29;20033;-74
2022/01/30 18:11:51;;;;;;;7.47;6.00;;;;;;;1.71;100.00;94614.00;4887508;29;20041;-72
2022/01/30 18:14:17;;;;;;;7.20;6.18;;;;;;;1.65;100.00;94629.81;4888316;29;20156;-72
2022/01/30 18:16:42;;;;;;;8.80;5.82;;;;;;;1.74;100.00;94633.34;4888899;29;20032;-72
2022/01/30 18:19:08;;;;;;;10.10;6.78;;;;;;;1.78;100.00;94629.63;4888421;29;20028;-72
